createdAt,value
2022-08-02T00:00:12.224Z,2.20
2022-08-02T00:02:39.485Z,2.10
2022-08-02T00:05:07.312Z,2.20
2022-08-02T00:07:40.894Z,2.15
2022-08-02T00:10:10.585Z,2.17
2022-08-02T00:12:38.958Z,1.80
2022-08-02T00:15:08.037Z,2.15
2022-08-02T00:17:35.230Z,1.90
2022-08-02T00:20:02.435Z,2.03
2022-08-02T00:22:29.590Z,2.50
2022-08-02T00:24:56.665Z,2.20
2022-08-02T00:27:24.474Z,2.50
2022-08-02T00:29:53.307Z,2.10
2022-08-02T00:32:22.846Z,2.60
2022-08-02T00:34:50.547Z,2.35
2022-08-02T00:37:17.997Z,2.40
2022-08-02T00:39:45.891Z,1.88
2022-08-02T00:42:16.581Z,2.17
2022-08-02T00:44:43.909Z,2.00
2022-08-02T00:47:11.174Z,2.60
2022-08-02T00:49:47.207Z,2.00
2022-08-02T00:52:14.977Z,1.85
2022-08-02T00:54:42.574Z,2.15
2022-08-02T00:57:09.682Z,2.10
2022-08-02T00:59:36.918Z,2.10
2022-08-02T01:02:04.153Z,1.90
2022-08-02T01:04:32.313Z,2.50
2022-08-02T01:07:01.589Z,1.98
2022-08-02T01:09:28.763Z,2.65
2022-08-02T01:11:56.203Z,1.95
2022-08-02T01:14:24.807Z,2.42
2022-08-02T01:16:51.900Z,2.10
2022-08-02T01:19:37.693Z,2.30
2022-08-02T01:23:01.122Z,2.10
2022-08-02T01:26:16.705Z,2.40
2022-08-02T01:28:52.052Z,2.08
2022-08-02T01:31:22.049Z,2.20
2022-08-02T01:34:02.457Z,2.30
2022-08-02T01:36:43.839Z,2.30
2022-08-02T01:39:27.314Z,2.00
2022-08-02T01:42:00.659Z,2.10
2022-08-02T01:44:31.904Z,2.28
2022-08-02T01:47:03.714Z,2.00
2022-08-02T01:49:32.720Z,2.13
2022-08-02T01:52:21.374Z,2.08
2022-08-02T01:55:04.517Z,2.65
2022-08-02T01:57:47.570Z,2.30
2022-08-02T02:00:16.708Z,2.00
2022-08-02T02:02:47.471Z,1.92
2022-08-02T02:05:16.854Z,2.55
2022-08-02T02:07:46.126Z,1.92
2022-08-02T02:10:17.376Z,2.70
2022-08-02T02:12:49.325Z,2.45
2022-08-02T02:15:17.790Z,2.05
2022-08-02T02:18:11.324Z,2.03
2022-08-02T02:20:34.694Z,2.20
2022-08-02T02:23:03.149Z,3.10
2022-08-02T02:25:36.098Z,2.28
2022-08-02T02:28:14.701Z,3.20
2022-08-02T02:30:49.044Z,2.63
2022-08-02T02:33:24.216Z,2.35
2022-08-02T02:35:55.172Z,2.45
2022-08-02T02:38:23.201Z,2.70
2022-08-02T02:40:50.594Z,2.35
2022-08-02T02:43:18.427Z,2.25
2022-08-02T02:45:47.221Z,2.40
2022-08-02T02:48:15.805Z,2.38
2022-08-02T02:50:44.159Z,2.42
2022-08-02T02:53:13.350Z,2.42
2022-08-02T02:55:42.291Z,2.55
2022-08-02T02:58:30.673Z,2.50
2022-08-02T03:01:16.661Z,2.70
2022-08-02T03:03:45.428Z,2.40
2022-08-02T03:06:15.747Z,2.25
2022-08-02T03:08:43.757Z,2.50
2022-08-02T03:11:12.343Z,2.53
2022-08-02T03:13:40.016Z,2.38
2022-08-02T03:16:07.507Z,2.60
2022-08-02T03:18:36.611Z,2.33
2022-08-02T03:21:06.334Z,2.40
2022-08-02T03:23:34.107Z,4.70
2022-08-02T03:26:01.993Z,3.08
2022-08-02T03:28:29.497Z,2.85
2022-08-02T03:30:56.724Z,2.50
2022-08-02T03:33:25.894Z,2.75
2022-08-02T03:35:56.521Z,2.28
2022-08-02T03:38:29.094Z,2.95
2022-08-02T03:40:57.868Z,2.65
2022-08-02T03:43:28.652Z,2.90
2022-08-02T03:45:58.061Z,2.83
2022-08-02T03:48:34.383Z,3.15
2022-08-02T03:51:02.494Z,3.03
2022-08-02T03:53:30.300Z,2.85
2022-08-02T03:55:58.348Z,3.22
2022-08-02T03:58:25.775Z,3.20
2022-08-02T04:00:54.905Z,3.38
2022-08-02T04:03:22.311Z,3.70
2022-08-02T04:06:01.065Z,3.80
2022-08-02T04:08:36.152Z,3.78
2022-08-02T04:11:22.285Z,3.78
2022-08-02T04:13:49.899Z,4.20
2022-08-02T04:16:23.174Z,4.40
2022-08-02T04:18:55.773Z,4.23
2022-08-02T04:21:26.936Z,4.57
2022-08-02T04:24:18.768Z,4.28
2022-08-02T04:26:49.011Z,4.40
2022-08-02T04:29:18.500Z,4.65
2022-08-02T04:31:46.083Z,4.25
2022-08-02T04:34:15.433Z,4.13
2022-08-02T04:36:43.451Z,5.20
2022-08-02T04:39:10.734Z,5.20
2022-08-02T04:41:44.101Z,5.35
2022-08-02T04:44:12.561Z,4.95
2022-08-02T04:46:41.117Z,4.35
2022-08-02T04:49:08.749Z,5.22
2022-08-02T04:51:38.439Z,4.88
2022-08-02T04:54:09.721Z,5.63
2022-08-02T04:56:40.749Z,5.38
2022-08-02T04:59:08.655Z,4.78
2022-08-02T05:01:36.052Z,5.43
2022-08-02T05:04:03.913Z,5.05
2022-08-02T05:06:32.278Z,5.25
2022-08-02T05:08:59.440Z,5.50
2022-08-02T05:11:34.429Z,5.35
2022-08-02T05:14:06.266Z,4.65
2022-08-02T05:16:33.631Z,4.95
2022-08-02T05:19:01.251Z,5.47
2022-08-02T05:21:32.454Z,4.53
2022-08-02T05:23:59.714Z,4.82
2022-08-02T05:26:27.171Z,4.20
2022-08-02T05:28:54.373Z,5.00
2022-08-02T05:31:21.544Z,4.90
2022-08-02T05:33:48.689Z,5.95
2022-08-02T05:36:15.950Z,5.30
2022-08-02T05:38:43.082Z,4.53
2022-08-02T05:43:47.726Z,5.28
2022-08-02T05:46:14.828Z,5.45
2022-08-02T05:48:42.084Z,4.32
2022-08-02T05:51:17.727Z,5.18
2022-08-02T05:54:02.547Z,4.38
2022-08-02T05:56:29.615Z,4.82
2022-08-02T05:59:01.222Z,3.70
2022-08-02T06:01:33.722Z,4.35
2022-08-02T06:04:05.132Z,5.22
2022-08-02T06:06:33.346Z,3.85
2022-08-02T06:09:14.763Z,4.68
2022-08-02T06:12:02.162Z,3.75
2022-08-02T06:14:33.919Z,4.07
2022-08-02T06:17:06.446Z,3.88
2022-08-02T06:19:46.916Z,4.00
2022-08-02T06:22:35.466Z,4.15
2022-08-02T06:25:04.933Z,3.88
2022-08-02T06:27:33.716Z,4.10
2022-08-02T06:30:02.409Z,3.33
2022-08-02T06:32:31.867Z,3.55
2022-08-02T06:34:59.075Z,3.65
2022-08-02T06:37:44.218Z,4.13
2022-08-02T06:40:26.104Z,2.83
2022-08-02T06:43:12.094Z,3.08
2022-08-02T06:45:40.233Z,3.47
2022-08-02T06:48:07.909Z,3.03
2022-08-02T06:50:38.186Z,3.10
2022-08-02T06:53:06.524Z,2.90
2022-08-02T06:55:43.236Z,2.75
2022-08-02T06:58:13.387Z,2.70
2022-08-02T07:00:43.356Z,3.28
2022-08-02T07:03:10.853Z,2.50
2022-08-02T07:05:38.035Z,2.65
2022-08-02T07:08:05.313Z,2.45
2022-08-02T07:10:32.571Z,2.65
2022-08-02T07:13:00.895Z,1.77
2022-08-02T07:15:28.227Z,2.15
2022-08-02T07:17:55.462Z,1.83
2022-08-02T07:20:22.627Z,2.10
2022-08-02T07:22:49.915Z,2.30
2022-08-02T07:25:17.240Z,2.40
2022-08-02T07:27:44.429Z,2.72
2022-08-02T07:30:12.260Z,1.90
2022-08-02T07:32:39.518Z,2.25
2022-08-02T07:35:07.695Z,1.85
2022-08-02T07:37:55.307Z,1.98
2022-08-02T07:40:26.455Z,1.90
2022-08-02T07:43:03.546Z,2.25
2022-08-02T07:45:32.990Z,1.95
2022-08-02T07:48:03.662Z,2.10
2022-08-02T07:50:30.799Z,2.13
2022-08-02T07:52:59.437Z,2.08
2022-08-02T07:55:40.110Z,2.35
2022-08-02T07:58:12.510Z,2.30
2022-08-02T08:00:42.713Z,2.85
2022-08-02T08:03:10.171Z,2.20
2022-08-02T08:05:37.359Z,2.58
2022-08-02T08:08:06.056Z,2.10
2022-08-02T08:10:33.720Z,2.30
2022-08-02T08:13:00.898Z,1.65
2022-08-02T08:15:28.046Z,3.05
2022-08-02T08:17:55.157Z,2.40
2022-08-02T08:20:23.089Z,2.88
2022-08-02T08:22:50.282Z,2.13
2022-08-02T08:25:17.661Z,2.55
2022-08-02T08:27:52.267Z,2.38
2022-08-02T08:30:22.002Z,1.65
2022-08-02T08:32:49.567Z,2.17
2022-08-02T08:35:19.479Z,2.30
2022-08-02T08:37:46.801Z,2.35
2022-08-02T08:40:19.355Z,2.10
2022-08-02T08:42:47.332Z,2.67
2022-08-02T08:45:14.506Z,1.90
2022-08-02T08:47:42.805Z,1.88
2022-08-02T08:50:24.819Z,2.15
2022-08-02T08:53:07.216Z,1.90
2022-08-02T08:55:37.265Z,2.30
2022-08-02T08:58:06.371Z,3.20
2022-08-02T09:00:35.889Z,1.70
2022-08-02T09:03:08.576Z,2.20
2022-08-02T09:05:37.981Z,1.70
2022-08-02T09:08:05.923Z,1.73
2022-08-02T09:10:44.378Z,1.83
2022-08-02T09:13:31.174Z,1.92
2022-08-02T09:16:12.196Z,1.52
2022-08-02T09:18:46.184Z,1.88
2022-08-02T09:21:16.516Z,2.22
2022-08-02T09:23:49.264Z,1.80
2022-08-02T09:26:19.487Z,1.63
2022-08-02T09:28:50.252Z,1.55
2022-08-02T09:31:22.959Z,1.67
2022-08-02T09:33:55.770Z,1.65
2022-08-02T09:36:24.815Z,2.00
2022-08-02T09:38:59.872Z,1.30
2022-08-02T09:41:32.044Z,2.40
2022-08-02T09:44:04.901Z,1.90
2022-08-02T09:46:38.466Z,1.48
2022-08-02T09:49:16.897Z,1.80
2022-08-02T09:51:47.796Z,1.70
2022-08-02T09:54:20.703Z,2.03
2022-08-02T09:56:54.572Z,1.63
2022-08-02T10:02:01.799Z,1.40
2022-08-02T10:04:47.822Z,1.73
2022-08-02T10:07:22.488Z,1.58
2022-08-02T10:09:51.485Z,1.42
2022-08-02T10:12:22.894Z,1.42
2022-08-02T10:17:22.974Z,1.40
2022-08-02T10:20:01.175Z,1.17
2022-08-02T10:22:40.768Z,1.55
2022-08-02T10:25:09.145Z,4.30
2022-08-02T10:28:03.652Z,1.70
2022-08-02T10:30:27.319Z,1.25
2022-08-02T10:32:58.142Z,1.40
2022-08-02T10:35:26.972Z,1.52
2022-08-02T10:37:58.135Z,1.98
2022-08-02T10:40:28.269Z,1.45
2022-08-02T10:43:00.711Z,1.20
2022-08-02T10:45:28.880Z,1.40
2022-08-02T10:48:15.739Z,1.73
2022-08-02T10:50:46.142Z,1.58
2022-08-02T10:53:28.756Z,1.55
2022-08-02T10:56:01.627Z,1.73
2022-08-02T10:58:32.452Z,1.60
2022-08-02T11:01:06.497Z,1.40
2022-08-02T11:03:43.393Z,1.75
2022-08-02T11:06:24.986Z,1.75
2022-08-02T11:09:31.038Z,1.88
2022-08-02T11:12:05.840Z,1.33
2022-08-02T11:17:09.779Z,1.52
2022-08-02T11:20:09.820Z,1.50
2022-08-02T11:22:38.915Z,1.45
2022-08-02T11:25:24.641Z,1.65
2022-08-02T11:27:58.209Z,1.75
2022-08-02T11:33:01.476Z,1.45
2022-08-02T11:35:39.680Z,1.33
2022-08-02T11:38:37.116Z,1.38
2022-08-02T11:41:06.292Z,1.40
2022-08-02T11:43:44.749Z,1.17
2022-08-02T11:46:14.823Z,1.40
2022-08-02T11:48:53.505Z,1.27
2022-08-02T11:51:25.739Z,1.60
2022-08-02T11:53:59.159Z,1.40
2022-08-02T11:56:37.198Z,1.40
2022-08-02T11:59:09.517Z,1.58
2022-08-02T12:01:45.763Z,1.20
2022-08-02T12:04:22.725Z,1.98
2022-08-02T12:06:56.871Z,1.60
2022-08-02T12:09:26.682Z,1.52
2022-08-02T12:11:55.123Z,1.85
2022-08-02T12:14:23.749Z,1.25
2022-08-02T12:17:10.221Z,1.55
2022-08-02T12:19:38.504Z,1.20
2022-08-02T12:22:11.228Z,1.25
2022-08-02T12:24:42.498Z,1.30
2022-08-02T12:27:35.227Z,1.15
2022-08-02T12:30:07.280Z,1.30
2022-08-02T12:32:35.527Z,1.15
2022-08-02T12:35:13.582Z,1.83
2022-08-02T12:37:44.027Z,1.17
2022-08-02T12:40:25.631Z,1.30
2022-08-02T12:43:01.871Z,1.38
2022-08-02T12:45:39.190Z,1.20
2022-08-02T12:48:10.140Z,1.05
2022-08-02T12:50:39.367Z,1.00
2022-08-02T12:53:10.600Z,1.23
2022-08-02T12:55:59.258Z,1.05
2022-08-02T12:58:28.259Z,0.85
2022-08-02T13:01:00.784Z,1.05
2022-08-02T13:04:10.270Z,0.90
2022-08-02T13:09:17.409Z,1.27
2022-08-02T13:12:05.846Z,1.20
2022-08-02T13:14:40.386Z,1.38
2022-08-02T13:17:14.278Z,1.20
2022-08-02T13:19:42.900Z,1.60
2022-08-02T13:22:11.658Z,1.30
2022-08-02T13:24:56.541Z,1.30
2022-08-02T13:27:26.146Z,1.50
2022-08-02T13:29:56.607Z,1.10
2022-08-02T13:32:26.249Z,1.60
2022-08-02T13:34:54.093Z,1.63
2022-08-02T13:37:22.071Z,1.73
2022-08-02T13:40:11.871Z,1.20
2022-08-02T13:42:36.778Z,1.10
2022-08-02T13:45:12.935Z,2.33
2022-08-02T13:48:03.505Z,4.07
2022-08-02T13:50:30.906Z,2.67
2022-08-02T13:52:58.110Z,1.60
2022-08-02T13:55:25.459Z,1.23
2022-08-02T13:57:55.697Z,1.40
2022-08-02T14:00:35.705Z,1.48
2022-08-02T14:03:05.952Z,1.45
2022-08-02T14:05:39.321Z,1.40
2022-08-02T14:08:20.191Z,1.40
2022-08-02T14:10:51.333Z,1.40
2022-08-02T14:13:19.483Z,14.48
2022-08-02T14:15:47.644Z,2.08
2022-08-02T14:18:15.788Z,1.20
2022-08-02T14:20:44.424Z,1.58
2022-08-02T14:23:12.080Z,1.40
2022-08-02T14:25:40.243Z,1.63
2022-08-02T14:28:08.354Z,1.80
2022-08-02T14:30:36.544Z,1.38
2022-08-02T14:33:04.557Z,1.40
2022-08-02T14:35:32.426Z,1.40
2022-08-02T14:37:59.890Z,1.50
2022-08-02T14:40:31.172Z,1.42
2022-08-02T14:43:00.537Z,1.63
2022-08-02T14:45:36.745Z,1.55
2022-08-02T14:48:11.156Z,1.70
2022-08-02T14:50:39.212Z,1.60
2022-08-02T14:53:06.909Z,1.45
2022-08-02T14:55:46.248Z,1.55
2022-08-02T14:58:14.234Z,1.60
2022-08-02T15:00:43.842Z,1.80
2022-08-02T15:03:11.853Z,1.50
2022-08-02T15:05:39.867Z,1.65
2022-08-02T15:08:08.428Z,1.70
2022-08-02T15:10:36.439Z,1.40
2022-08-02T15:13:04.106Z,1.30
2022-08-02T15:15:32.423Z,1.35
2022-08-02T15:18:09.657Z,1.92
2022-08-02T15:20:37.005Z,1.55
2022-08-02T15:23:07.167Z,1.63
2022-08-02T15:25:41.099Z,1.40
2022-08-02T15:28:09.281Z,1.80
2022-08-02T15:30:37.587Z,1.50
2022-08-02T15:33:05.640Z,1.55
2022-08-02T15:35:33.996Z,1.58
2022-08-02T15:38:01.747Z,2.00
2022-08-02T15:40:29.620Z,1.67
2022-08-02T15:42:58.085Z,1.55
2022-08-02T15:45:27.971Z,2.05
2022-08-02T15:47:55.626Z,1.58
2022-08-02T15:50:23.552Z,1.60
2022-08-02T15:52:50.927Z,1.70
2022-08-02T15:55:18.633Z,1.92
2022-08-02T15:57:46.222Z,1.65
2022-08-02T16:00:18.677Z,1.55
2022-08-02T16:02:48.062Z,1.60
2022-08-02T16:05:18.235Z,1.88
2022-08-02T16:07:46.689Z,1.70
2022-08-02T16:10:15.740Z,2.15
2022-08-02T16:12:43.493Z,2.25
2022-08-02T16:15:12.866Z,1.58
2022-08-02T16:17:49.304Z,2.20
2022-08-02T16:20:24.759Z,2.00
2022-08-02T16:22:52.220Z,1.80
2022-08-02T16:25:19.810Z,1.52
2022-08-02T16:28:05.944Z,1.63
2022-08-02T16:30:35.688Z,1.63
2022-08-02T16:33:03.757Z,1.88
2022-08-02T16:35:31.171Z,1.80
2022-08-02T16:37:58.897Z,1.73
2022-08-02T16:40:26.497Z,1.70
2022-08-02T16:42:54.129Z,1.70
2022-08-02T16:45:22.441Z,1.77
2022-08-02T16:47:55.814Z,1.75
2022-08-02T16:50:27.470Z,2.08
2022-08-02T16:52:58.918Z,1.60
2022-08-02T16:55:29.258Z,1.70
2022-08-02T16:57:59.260Z,1.60
2022-08-02T17:00:27.008Z,1.88
2022-08-02T17:02:54.296Z,1.70
2022-08-02T17:05:37.833Z,1.50
2022-08-02T17:08:18.348Z,1.80
2022-08-02T17:10:45.766Z,1.60
2022-08-02T17:13:13.103Z,1.95
2022-08-02T17:16:08.353Z,1.80
2022-08-02T17:18:29.859Z,1.98
2022-08-02T17:20:58.116Z,1.50
2022-08-02T17:24:04.637Z,1.80
2022-08-02T17:26:13.142Z,1.88
2022-08-02T17:29:07.005Z,2.08
2022-08-02T17:31:30.113Z,2.70
2022-08-02T17:34:05.344Z,2.45
2022-08-02T17:36:32.912Z,2.30
2022-08-02T17:39:00.566Z,2.10
2022-08-02T17:41:37.539Z,2.40
2022-08-02T17:44:06.600Z,1.80
2022-08-02T17:46:37.051Z,2.35
2022-08-02T17:49:17.347Z,2.55
2022-08-02T17:52:48.205Z,2.00
2022-08-02T17:54:32.563Z,1.88
2022-08-02T17:57:01.725Z,2.00
2022-08-02T17:59:42.202Z,2.00
2022-08-02T18:02:11.662Z,2.03
2022-08-02T18:04:39.001Z,2.00
2022-08-02T18:07:09.432Z,2.20
2022-08-02T18:09:39.577Z,1.77
2022-08-02T18:12:15.211Z,2.08
2022-08-02T18:14:49.051Z,1.80
2022-08-02T18:17:17.972Z,2.10
2022-08-02T18:19:57.497Z,2.10
2022-08-02T18:22:27.178Z,2.22
2022-08-02T18:24:54.810Z,1.85
2022-08-02T18:27:23.183Z,2.25
2022-08-02T18:30:04.019Z,2.38
2022-08-02T18:33:56.032Z,2.33
2022-08-02T18:35:20.556Z,1.90
2022-08-02T18:37:57.072Z,2.40
2022-08-02T18:40:31.142Z,1.90
2022-08-02T18:42:59.088Z,2.08
2022-08-02T18:46:01.588Z,2.08
2022-08-02T18:48:18.165Z,2.50
2022-08-02T18:50:46.887Z,1.90
2022-08-02T18:53:14.468Z,2.25
2022-08-02T18:56:02.816Z,2.72
2022-08-02T18:58:29.765Z,2.05
2022-08-02T19:00:59.171Z,2.10
2022-08-02T19:03:27.160Z,1.83
2022-08-02T19:05:54.567Z,2.00
2022-08-02T19:08:26.345Z,2.25
2022-08-02T19:10:56.349Z,2.33
2022-08-02T19:13:24.814Z,2.83
2022-08-02T19:15:55.720Z,2.22
2022-08-02T19:18:26.930Z,2.08
2022-08-02T19:21:05.260Z,2.28
2022-08-02T19:23:33.158Z,2.10
2022-08-02T19:26:00.641Z,2.17
2022-08-02T19:28:28.434Z,2.13
2022-08-02T19:30:56.428Z,2.10
2022-08-02T19:33:54.552Z,2.35
2022-08-02T19:36:11.691Z,2.30
2022-08-02T19:38:44.085Z,2.08
2022-08-02T19:41:26.785Z,2.30
2022-08-02T19:44:26.857Z,2.97
2022-08-02T19:46:41.692Z,2.30
2022-08-02T19:49:16.722Z,2.70
2022-08-02T19:51:55.544Z,3.20
2022-08-02T19:54:35.645Z,2.47
2022-08-02T19:57:13.747Z,2.85
2022-08-02T19:59:46.823Z,2.65
2022-08-02T20:02:16.068Z,2.90
2022-08-02T20:04:49.766Z,2.90
2022-08-02T20:07:24.247Z,2.67
2022-08-02T20:10:05.973Z,2.45
2022-08-02T20:12:41.967Z,2.85
2022-08-02T20:15:14.617Z,2.50
2022-08-02T20:17:47.676Z,2.80
2022-08-02T20:20:17.133Z,2.65
2022-08-02T20:23:32.006Z,3.55
2022-08-02T20:25:54.270Z,4.57
2022-08-02T20:28:39.987Z,3.35
2022-08-02T20:31:09.313Z,2.83
2022-08-02T20:33:36.993Z,2.65
2022-08-02T20:36:23.966Z,2.83
2022-08-02T20:38:51.177Z,3.38
2022-08-02T20:41:20.301Z,2.65
2022-08-02T20:43:49.881Z,2.95
2022-08-02T20:46:17.408Z,2.80
2022-08-02T20:48:45.042Z,2.75
2022-08-02T20:51:14.020Z,2.72
2022-08-02T20:53:54.894Z,2.58
2022-08-02T20:56:23.908Z,2.85
2022-08-02T20:58:52.366Z,3.05
2022-08-02T21:01:21.129Z,2.92
2022-08-02T21:03:58.389Z,3.20
2022-08-02T21:06:29.556Z,2.50
2022-08-02T21:08:57.198Z,2.65
2022-08-02T21:11:33.573Z,2.85
2022-08-02T21:14:06.346Z,2.50
2022-08-02T21:16:36.807Z,2.65
2022-08-02T21:19:07.877Z,2.80
2022-08-02T21:21:35.376Z,3.05
2022-08-02T21:24:02.953Z,2.80
2022-08-02T21:26:30.485Z,2.63
2022-08-02T21:29:03.647Z,3.00
2022-08-02T21:31:35.895Z,2.72
2022-08-02T21:34:21.788Z,2.65
2022-08-02T21:36:52.836Z,2.80
2022-08-02T21:39:20.530Z,2.63
2022-08-02T21:41:48.155Z,3.20
2022-08-02T21:44:16.979Z,3.42
2022-08-02T21:46:45.564Z,3.42
2022-08-02T21:49:14.404Z,2.72
2022-08-02T21:51:42.671Z,2.55
2022-08-02T21:54:18.691Z,3.10
2022-08-02T21:56:48.353Z,3.08
2022-08-02T21:59:17.502Z,3.00
2022-08-02T22:01:52.505Z,3.08
2022-08-02T22:04:21.640Z,2.78
2022-08-02T22:06:49.468Z,2.40
2022-08-02T22:09:42.510Z,2.85
2022-08-02T22:14:55.726Z,3.00
2022-08-02T22:17:50.622Z,3.20
2022-08-02T22:20:18.430Z,2.97
2022-08-02T22:22:50.595Z,3.33
2022-08-02T22:25:26.584Z,3.28
2022-08-02T22:28:35.182Z,2.83
2022-08-02T22:30:54.305Z,3.15
2022-08-02T22:33:46.661Z,3.63
2022-08-02T22:36:28.294Z,3.00
2022-08-02T22:38:55.772Z,3.03
2022-08-02T22:41:22.894Z,3.03
2022-08-02T22:43:50.287Z,3.00
2022-08-02T22:46:17.506Z,3.05
2022-08-02T22:48:46.240Z,3.55
2022-08-02T22:51:15.194Z,3.10
2022-08-02T22:53:44.008Z,2.92
2022-08-02T22:56:12.867Z,3.13
2022-08-02T22:59:12.607Z,3.10
2022-08-02T23:01:29.974Z,3.28
2022-08-02T23:03:57.071Z,3.22
2022-08-02T23:06:24.375Z,3.10
2022-08-02T23:08:51.504Z,3.65
2022-08-02T23:11:18.758Z,3.45
2022-08-02T23:13:45.855Z,3.20
2022-08-02T23:16:37.471Z,3.10
2022-08-02T23:19:23.800Z,2.97
2022-08-02T23:22:02.337Z,3.00
2022-08-02T23:24:33.222Z,3.22
2022-08-02T23:27:01.622Z,3.50
2022-08-02T23:29:29.223Z,3.42
2022-08-02T23:31:56.705Z,3.08
2022-08-02T23:34:27.002Z,3.15
2022-08-02T23:36:54.396Z,3.00
2022-08-02T23:39:21.684Z,3.28
2022-08-02T23:41:54.652Z,3.10
2022-08-02T23:44:23.852Z,3.45
2022-08-02T23:46:52.203Z,3.10
2022-08-02T23:49:20.282Z,2.95
2022-08-02T23:51:48.592Z,3.38
2022-08-02T23:54:16.301Z,3.08
2022-08-02T23:56:44.468Z,3.00
2022-08-02T23:59:12.201Z,3.10
